sensor_id;sensor_type;location;lat;lon;timestamp;P1;durP1;ratioP1;P2;durP2;ratioP2
16922;SDS011;8578;50.938;13.556;2023-05-24T00:00:27;11.23;;;3.77;;
16922;SDS011;8578;50.938;13.556;2023-05-24T00:02:54;11.70;;;4.40;;
16922;SDS011;8578;50.938;13.556;2023-05-24T00:05:22;14.07;;;4.27;;
16922;SDS011;8578;50.938;13.556;2023-05-24T00:07:50;15.50;;;4.10;;
16922;SDS011;8578;50.938;13.556;2023-05-24T00:10:19;17.80;;;4.47;;
16922;SDS011;8578;50.938;13.556;2023-05-24T00:12:46;11.23;;;4.37;;
16922;SDS011;8578;50.938;13.556;2023-05-24T00:15:14;11.67;;;4.33;;
16922;SDS011;8578;50.938;13.556;2023-05-24T00:17:42;11.37;;;4.57;;
16922;SDS011;8578;50.938;13.556;2023-05-24T00:20:10;17.00;;;4.37;;
16922;SDS011;8578;50.938;13.556;2023-05-24T00:22:39;13.37;;;4.50;;
16922;SDS011;8578;50.938;13.556;2023-05-24T00:25:07;9.07;;;3.77;;
16922;SDS011;8578;50.938;13.556;2023-05-24T00:27:36;10.17;;;4.20;;
16922;SDS011;8578;50.938;13.556;2023-05-24T00:30:04;15.10;;;4.20;;
16922;SDS011;8578;50.938;13.556;2023-05-24T00:32:32;10.03;;;4.20;;
16922;SDS011;8578;50.938;13.556;2023-05-24T00:35:02;15.03;;;3.80;;
16922;SDS011;8578;50.938;13.556;2023-05-24T00:37:30;11.77;;;3.83;;
16922;SDS011;8578;50.938;13.556;2023-05-24T00:39:57;13.97;;;3.33;;
16922;SDS011;8578;50.938;13.556;2023-05-24T00:42:25;13.37;;;3.77;;
16922;SDS011;8578;50.938;13.556;2023-05-24T00:44:54;13.80;;;3.77;;
16922;SDS011;8578;50.938;13.556;2023-05-24T00:47:21;18.37;;;3.73;;
16922;SDS011;8578;50.938;13.556;2023-05-24T00:49:49;13.70;;;3.70;;
16922;SDS011;8578;50.938;13.556;2023-05-24T00:52:17;9.67;;;3.70;;
16922;SDS011;8578;50.938;13.556;2023-05-24T00:54:44;14.67;;;3.80;;
16922;SDS011;8578;50.938;13.556;2023-05-24T00:57:12;13.03;;;3.30;;
16922;SDS011;8578;50.938;13.556;2023-05-24T00:59:40;8.63;;;3.33;;
16922;SDS011;8578;50.938;13.556;2023-05-24T01:02:09;10.37;;;3.00;;
16922;SDS011;8578;50.938;13.556;2023-05-24T01:04:36;11.33;;;3.70;;
16922;SDS011;8578;50.938;13.556;2023-05-24T01:07:08;10.87;;;3.33;;
16922;SDS011;8578;50.938;13.556;2023-05-24T01:09:42;10.43;;;3.20;;
16922;SDS011;8578;50.938;13.556;2023-05-24T01:12:17;14.37;;;3.27;;
16922;SDS011;8578;50.938;13.556;2023-05-24T01:14:49;8.70;;;2.57;;
16922;SDS011;8578;50.938;13.556;2023-05-24T01:17:20;11.77;;;3.37;;
16922;SDS011;8578;50.938;13.556;2023-05-24T01:19:50;13.10;;;3.33;;
16922;SDS011;8578;50.938;13.556;2023-05-24T01:25:11;7.87;;;3.13;;
16922;SDS011;8578;50.938;13.556;2023-05-24T01:27:41;8.17;;;3.17;;
16922;SDS011;8578;50.938;13.556;2023-05-24T01:30:09;8.40;;;3.23;;
16922;SDS011;8578;50.938;13.556;2023-05-24T01:32:40;13.13;;;3.20;;
16922;SDS011;8578;50.938;13.556;2023-05-24T01:35:08;9.63;;;3.10;;
16922;SDS011;8578;50.938;13.556;2023-05-24T01:37:36;13.13;;;3.53;;
16922;SDS011;8578;50.938;13.556;2023-05-24T01:40:06;9.30;;;3.00;;
16922;SDS011;8578;50.938;13.556;2023-05-24T01:42:35;11.00;;;3.23;;
16922;SDS011;8578;50.938;13.556;2023-05-24T01:45:08;12.83;;;3.33;;
16922;SDS011;8578;50.938;13.556;2023-05-24T01:47:41;12.50;;;3.00;;
16922;SDS011;8578;50.938;13.556;2023-05-24T01:50:14;9.00;;;2.43;;
16922;SDS011;8578;50.938;13.556;2023-05-24T01:52:43;12.60;;;2.73;;
16922;SDS011;8578;50.938;13.556;2023-05-24T01:55:11;9.07;;;2.80;;
16922;SDS011;8578;50.938;13.556;2023-05-24T01:57:40;9.83;;;2.70;;
16922;SDS011;8578;50.938;13.556;2023-05-24T02:00:11;9.30;;;2.57;;
16922;SDS011;8578;50.938;13.556;2023-05-24T02:02:40;11.40;;;3.03;;
16922;SDS011;8578;50.938;13.556;2023-05-24T02:05:08;13.77;;;3.17;;
16922;SDS011;8578;50.938;13.556;2023-05-24T02:07:36;10.67;;;2.27;;
16922;SDS011;8578;50.938;13.556;2023-05-24T02:10:04;9.27;;;2.70;;
16922;SDS011;8578;50.938;13.556;2023-05-24T02:12:32;10.83;;;2.50;;
16922;SDS011;8578;50.938;13.556;2023-05-24T02:15:00;10.80;;;2.50;;
16922;SDS011;8578;50.938;13.556;2023-05-24T02:17:29;9.70;;;2.77;;
16922;SDS011;8578;50.938;13.556;2023-05-24T02:19:58;13.00;;;2.40;;
16922;SDS011;8578;50.938;13.556;2023-05-24T02:22:26;10.87;;;2.77;;
16922;SDS011;8578;50.938;13.556;2023-05-24T02:24:54;6.63;;;2.37;;
16922;SDS011;8578;50.938;13.556;2023-05-24T02:27:21;10.60;;;2.40;;
16922;SDS011;8578;50.938;13.556;2023-05-24T02:29:49;7.67;;;2.33;;
16922;SDS011;8578;50.938;13.556;2023-05-24T02:32:17;12.90;;;2.53;;
16922;SDS011;8578;50.938;13.556;2023-05-24T02:34:46;11.33;;;2.30;;
16922;SDS011;8578;50.938;13.556;2023-05-24T02:37:15;10.67;;;2.33;;
16922;SDS011;8578;50.938;13.556;2023-05-24T02:39:43;14.87;;;2.73;;
16922;SDS011;8578;50.938;13.556;2023-05-24T02:42:11;9.77;;;2.13;;
16922;SDS011;8578;50.938;13.556;2023-05-24T02:44:38;7.33;;;2.10;;
16922;SDS011;8578;50.938;13.556;2023-05-24T02:47:07;12.30;;;2.90;;
16922;SDS011;8578;50.938;13.556;2023-05-24T02:49:35;11.53;;;2.53;;
16922;SDS011;8578;50.938;13.556;2023-05-24T02:52:04;11.40;;;2.53;;
16922;SDS011;8578;50.938;13.556;2023-05-24T02:54:32;12.53;;;2.43;;
16922;SDS011;8578;50.938;13.556;2023-05-24T02:56:59;7.97;;;2.50;;
16922;SDS011;8578;50.938;13.556;2023-05-24T02:59:28;10.97;;;2.90;;
16922;SDS011;8578;50.938;13.556;2023-05-24T03:01:56;11.27;;;2.83;;
16922;SDS011;8578;50.938;13.556;2023-05-24T03:04:24;7.73;;;2.40;;
16922;SDS011;8578;50.938;13.556;2023-05-24T03:06:53;6.33;;;2.47;;
16922;SDS011;8578;50.938;13.556;2023-05-24T03:09:23;6.63;;;2.07;;
16922;SDS011;8578;50.938;13.556;2023-05-24T03:11:50;8.37;;;2.07;;
16922;SDS011;8578;50.938;13.556;2023-05-24T03:14:19;8.37;;;2.33;;
16922;SDS011;8578;50.938;13.556;2023-05-24T03:16:50;11.43;;;2.43;;
16922;SDS011;8578;50.938;13.556;2023-05-24T03:19:17;11.30;;;2.60;;
16922;SDS011;8578;50.938;13.556;2023-05-24T03:21:46;7.20;;;2.47;;
16922;SDS011;8578;50.938;13.556;2023-05-24T03:24:14;8.57;;;2.27;;
16922;SDS011;8578;50.938;13.556;2023-05-24T03:26:43;9.57;;;2.47;;
16922;SDS011;8578;50.938;13.556;2023-05-24T03:29:11;12.70;;;2.60;;
16922;SDS011;8578;50.938;13.556;2023-05-24T03:31:41;9.20;;;3.30;;
16922;SDS011;8578;50.938;13.556;2023-05-24T03:34:09;12.90;;;2.50;;
16922;SDS011;8578;50.938;13.556;2023-05-24T03:36:37;16.33;;;2.50;;
16922;SDS011;8578;50.938;13.556;2023-05-24T03:39:05;12.30;;;2.27;;
16922;SDS011;8578;50.938;13.556;2023-05-24T03:41:48;8.30;;;2.00;;
16922;SDS011;8578;50.938;13.556;2023-05-24T03:44:16;8.83;;;2.67;;
16922;SDS011;8578;50.938;13.556;2023-05-24T03:46:43;9.07;;;2.20;;
16922;SDS011;8578;50.938;13.556;2023-05-24T03:49:11;12.27;;;2.33;;
16922;SDS011;8578;50.938;13.556;2023-05-24T03:51:38;10.17;;;2.00;;
16922;SDS011;8578;50.938;13.556;2023-05-24T03:54:06;12.53;;;2.10;;
16922;SDS011;8578;50.938;13.556;2023-05-24T03:56:33;13.30;;;2.93;;
16922;SDS011;8578;50.938;13.556;2023-05-24T03:59:02;7.30;;;2.03;;
16922;SDS011;8578;50.938;13.556;2023-05-24T04:01:31;7.63;;;1.90;;
16922;SDS011;8578;50.938;13.556;2023-05-24T04:04:00;7.73;;;1.93;;
16922;SDS011;8578;50.938;13.556;2023-05-24T04:06:28;13.23;;;1.90;;
16922;SDS011;8578;50.938;13.556;2023-05-24T04:08:57;8.17;;;2.00;;
16922;SDS011;8578;50.938;13.556;2023-05-24T04:11:25;6.20;;;2.00;;
16922;SDS011;8578;50.938;13.556;2023-05-24T04:13:54;10.40;;;1.90;;
16922;SDS011;8578;50.938;13.556;2023-05-24T04:16:23;8.77;;;2.20;;
16922;SDS011;8578;50.938;13.556;2023-05-24T04:18:52;9.40;;;2.20;;
16922;SDS011;8578;50.938;13.556;2023-05-24T04:21:20;7.03;;;1.90;;
16922;SDS011;8578;50.938;13.556;2023-05-24T04:23:47;14.77;;;2.70;;
16922;SDS011;8578;50.938;13.556;2023-05-24T04:26:15;13.13;;;2.17;;
16922;SDS011;8578;50.938;13.556;2023-05-24T04:28:43;9.53;;;1.97;;
16922;SDS011;8578;50.938;13.556;2023-05-24T04:31:12;10.17;;;2.10;;
16922;SDS011;8578;50.938;13.556;2023-05-24T04:33:42;12.30;;;2.10;;
16922;SDS011;8578;50.938;13.556;2023-05-24T04:36:10;12.67;;;2.50;;
16922;SDS011;8578;50.938;13.556;2023-05-24T04:38:38;13.23;;;2.57;;
16922;SDS011;8578;50.938;13.556;2023-05-24T04:41:07;10.67;;;2.23;;
16922;SDS011;8578;50.938;13.556;2023-05-24T04:43:34;11.43;;;2.30;;
16922;SDS011;8578;50.938;13.556;2023-05-24T04:46:02;9.67;;;2.27;;
16922;SDS011;8578;50.938;13.556;2023-05-24T04:48:31;13.20;;;2.40;;
16922;SDS011;8578;50.938;13.556;2023-05-24T04:50:59;7.57;;;2.37;;
16922;SDS011;8578;50.938;13.556;2023-05-24T04:53:27;6.97;;;2.20;;
16922;SDS011;8578;50.938;13.556;2023-05-24T04:55:54;9.07;;;2.20;;
16922;SDS011;8578;50.938;13.556;2023-05-24T04:58:22;8.23;;;2.17;;
16922;SDS011;8578;50.938;13.556;2023-05-24T05:00:49;7.70;;;1.77;;
16922;SDS011;8578;50.938;13.556;2023-05-24T05:03:17;15.67;;;2.43;;
16922;SDS011;8578;50.938;13.556;2023-05-24T05:05:44;8.23;;;2.73;;
16922;SDS011;8578;50.938;13.556;2023-05-24T05:08:14;12.37;;;2.20;;
16922;SDS011;8578;50.938;13.556;2023-05-24T05:10:41;12.17;;;2.80;;
16922;SDS011;8578;50.938;13.556;2023-05-24T05:13:10;8.57;;;2.30;;
16922;SDS011;8578;50.938;13.556;2023-05-24T05:15:37;8.07;;;2.27;;
16922;SDS011;8578;50.938;13.556;2023-05-24T05:18:08;10.97;;;2.00;;
16922;SDS011;8578;50.938;13.556;2023-05-24T05:20:35;15.00;;;2.70;;
16922;SDS011;8578;50.938;13.556;2023-05-24T05:23:03;14.03;;;2.33;;
16922;SDS011;8578;50.938;13.556;2023-05-24T05:25:32;6.93;;;2.50;;
16922;SDS011;8578;50.938;13.556;2023-05-24T05:27:59;14.43;;;2.60;;
16922;SDS011;8578;50.938;13.556;2023-05-24T05:30:27;8.80;;;2.13;;
16922;SDS011;8578;50.938;13.556;2023-05-24T05:32:55;8.03;;;2.17;;
16922;SDS011;8578;50.938;13.556;2023-05-24T05:35:22;9.00;;;2.07;;
16922;SDS011;8578;50.938;13.556;2023-05-24T05:37:50;15.10;;;2.97;;
16922;SDS011;8578;50.938;13.556;2023-05-24T05:40:18;10.90;;;2.33;;
16922;SDS011;8578;50.938;13.556;2023-05-24T05:42:47;14.40;;;3.20;;
16922;SDS011;8578;50.938;13.556;2023-05-24T05:45:15;11.60;;;2.50;;
16922;SDS011;8578;50.938;13.556;2023-05-24T05:47:42;10.73;;;2.20;;
16922;SDS011;8578;50.938;13.556;2023-05-24T05:50:10;10.13;;;2.17;;
16922;SDS011;8578;50.938;13.556;2023-05-24T05:52:38;12.93;;;2.10;;
16922;SDS011;8578;50.938;13.556;2023-05-24T05:55:06;12.17;;;2.37;;
16922;SDS011;8578;50.938;13.556;2023-05-24T05:57:34;7.93;;;1.70;;
16922;SDS011;8578;50.938;13.556;2023-05-24T06:00:03;9.53;;;2.13;;
16922;SDS011;8578;50.938;13.556;2023-05-24T06:02:37;11.63;;;2.40;;
16922;SDS011;8578;50.938;13.556;2023-05-24T06:05:05;9.83;;;1.80;;
16922;SDS011;8578;50.938;13.556;2023-05-24T06:07:32;11.97;;;2.47;;
16922;SDS011;8578;50.938;13.556;2023-05-24T06:10:01;9.10;;;2.30;;
16922;SDS011;8578;50.938;13.556;2023-05-24T06:12:28;10.57;;;2.20;;
16922;SDS011;8578;50.938;13.556;2023-05-24T06:14:55;10.57;;;2.00;;
16922;SDS011;8578;50.938;13.556;2023-05-24T06:17:26;12.13;;;2.10;;
16922;SDS011;8578;50.938;13.556;2023-05-24T06:19:54;10.50;;;2.33;;
16922;SDS011;8578;50.938;13.556;2023-05-24T06:22:22;7.77;;;2.07;;
16922;SDS011;8578;50.938;13.556;2023-05-24T06:24:49;7.43;;;2.63;;
16922;SDS011;8578;50.938;13.556;2023-05-24T06:27:17;6.60;;;1.80;;
16922;SDS011;8578;50.938;13.556;2023-05-24T06:29:45;13.77;;;2.13;;
16922;SDS011;8578;50.938;13.556;2023-05-24T06:32:12;8.53;;;2.30;;
16922;SDS011;8578;50.938;13.556;2023-05-24T06:34:41;5.87;;;2.20;;
16922;SDS011;8578;50.938;13.556;2023-05-24T06:37:09;6.07;;;2.20;;
16922;SDS011;8578;50.938;13.556;2023-05-24T06:39:40;11.70;;;2.80;;
16922;SDS011;8578;50.938;13.556;2023-05-24T06:42:07;5.97;;;1.87;;
16922;SDS011;8578;50.938;13.556;2023-05-24T06:44:35;13.97;;;2.73;;
16922;SDS011;8578;50.938;13.556;2023-05-24T06:47:03;8.27;;;2.30;;
16922;SDS011;8578;50.938;13.556;2023-05-24T06:49:31;15.53;;;2.20;;
16922;SDS011;8578;50.938;13.556;2023-05-24T06:52:00;12.83;;;2.23;;
16922;SDS011;8578;50.938;13.556;2023-05-24T06:54:28;12.43;;;2.40;;
16922;SDS011;8578;50.938;13.556;2023-05-24T06:56:56;11.50;;;2.53;;
16922;SDS011;8578;50.938;13.556;2023-05-24T06:59:24;11.30;;;2.60;;
16922;SDS011;8578;50.938;13.556;2023-05-24T07:01:52;14.53;;;2.90;;
16922;SDS011;8578;50.938;13.556;2023-05-24T07:04:25;8.87;;;2.17;;
16922;SDS011;8578;50.938;13.556;2023-05-24T07:06:53;14.13;;;2.60;;
16922;SDS011;8578;50.938;13.556;2023-05-24T07:09:23;12.47;;;2.40;;
16922;SDS011;8578;50.938;13.556;2023-05-24T07:11:51;11.63;;;2.60;;
16922;SDS011;8578;50.938;13.556;2023-05-24T07:14:19;10.33;;;2.20;;
16922;SDS011;8578;50.938;13.556;2023-05-24T07:16:48;10.40;;;2.67;;
16922;SDS011;8578;50.938;13.556;2023-05-24T07:19:16;12.57;;;2.57;;
16922;SDS011;8578;50.938;13.556;2023-05-24T07:21:43;9.07;;;2.03;;
16922;SDS011;8578;50.938;13.556;2023-05-24T07:24:11;14.13;;;2.53;;
16922;SDS011;8578;50.938;13.556;2023-05-24T07:26:42;14.93;;;2.50;;
16922;SDS011;8578;50.938;13.556;2023-05-24T07:29:10;17.80;;;2.80;;
16922;SDS011;8578;50.938;13.556;2023-05-24T07:31:38;11.70;;;3.07;;
16922;SDS011;8578;50.938;13.556;2023-05-24T07:34:06;9.93;;;2.47;;
16922;SDS011;8578;50.938;13.556;2023-05-24T07:36:33;9.13;;;2.10;;
16922;SDS011;8578;50.938;13.556;2023-05-24T07:39:01;14.20;;;2.90;;
16922;SDS011;8578;50.938;13.556;2023-05-24T07:41:30;13.00;;;2.27;;
16922;SDS011;8578;50.938;13.556;2023-05-24T07:44:00;5.70;;;2.20;;
16922;SDS011;8578;50.938;13.556;2023-05-24T07:46:27;6.87;;;2.40;;
16922;SDS011;8578;50.938;13.556;2023-05-24T07:48:54;11.77;;;2.47;;
16922;SDS011;8578;50.938;13.556;2023-05-24T07:51:22;10.17;;;2.50;;
16922;SDS011;8578;50.938;13.556;2023-05-24T07:53:50;12.10;;;2.50;;
16922;SDS011;8578;50.938;13.556;2023-05-24T07:56:18;11.97;;;3.00;;
16922;SDS011;8578;50.938;13.556;2023-05-24T07:58:46;10.13;;;2.57;;
16922;SDS011;8578;50.938;13.556;2023-05-24T08:01:16;11.63;;;2.50;;
16922;SDS011;8578;50.938;13.556;2023-05-24T08:03:44;10.63;;;2.60;;
16922;SDS011;8578;50.938;13.556;2023-05-24T08:06:12;12.60;;;2.90;;
16922;SDS011;8578;50.938;13.556;2023-05-24T08:08:40;8.67;;;2.60;;
16922;SDS011;8578;50.938;13.556;2023-05-24T08:11:08;11.63;;;2.37;;
16922;SDS011;8578;50.938;13.556;2023-05-24T08:13:35;10.90;;;2.73;;
16922;SDS011;8578;50.938;13.556;2023-05-24T08:16:03;10.17;;;2.53;;
16922;SDS011;8578;50.938;13.556;2023-05-24T08:18:32;12.40;;;2.70;;
16922;SDS011;8578;50.938;13.556;2023-05-24T08:21:00;12.47;;;2.77;;
16922;SDS011;8578;50.938;13.556;2023-05-24T08:23:27;15.73;;;3.10;;
16922;SDS011;8578;50.938;13.556;2023-05-24T08:25:56;12.97;;;2.50;;
16922;SDS011;8578;50.938;13.556;2023-05-24T08:28:24;10.10;;;2.80;;
16922;SDS011;8578;50.938;13.556;2023-05-24T08:30:52;8.87;;;2.80;;
16922;SDS011;8578;50.938;13.556;2023-05-24T08:33:19;9.37;;;2.77;;
16922;SDS011;8578;50.938;13.556;2023-05-24T08:35:49;10.97;;;2.70;;
16922;SDS011;8578;50.938;13.556;2023-05-24T08:38:17;11.30;;;3.17;;
16922;SDS011;8578;50.938;13.556;2023-05-24T08:40:46;11.57;;;2.80;;
16922;SDS011;8578;50.938;13.556;2023-05-24T08:43:14;14.13;;;2.90;;
16922;SDS011;8578;50.938;13.556;2023-05-24T08:45:41;10.87;;;2.60;;
16922;SDS011;8578;50.938;13.556;2023-05-24T08:48:10;11.80;;;2.40;;
16922;SDS011;8578;50.938;13.556;2023-05-24T08:50:38;10.83;;;2.73;;
16922;SDS011;8578;50.938;13.556;2023-05-24T08:53:08;16.73;;;3.87;;
16922;SDS011;8578;50.938;13.556;2023-05-24T08:55:36;8.17;;;2.83;;
16922;SDS011;8578;50.938;13.556;2023-05-24T08:58:04;11.10;;;2.97;;
16922;SDS011;8578;50.938;13.556;2023-05-24T09:00:32;18.23;;;3.33;;
16922;SDS011;8578;50.938;13.556;2023-05-24T09:02:59;9.93;;;3.03;;
16922;SDS011;8578;50.938;13.556;2023-05-24T09:05:28;9.90;;;2.97;;
16922;SDS011;8578;50.938;13.556;2023-05-24T09:07:56;12.73;;;3.00;;
16922;SDS011;8578;50.938;13.556;2023-05-24T09:10:26;12.70;;;2.60;;
16922;SDS011;8578;50.938;13.556;2023-05-24T09:13:06;11.53;;;2.60;;
16922;SDS011;8578;50.938;13.556;2023-05-24T09:15:34;14.07;;;3.10;;
16922;SDS011;8578;50.938;13.556;2023-05-24T09:18:03;9.60;;;2.60;;
16922;SDS011;8578;50.938;13.556;2023-05-24T09:20:31;12.03;;;3.20;;
16922;SDS011;8578;50.938;13.556;2023-05-24T09:22:59;11.47;;;3.00;;
16922;SDS011;8578;50.938;13.556;2023-05-24T09:25:29;12.47;;;2.93;;
16922;SDS011;8578;50.938;13.556;2023-05-24T09:27:57;9.90;;;3.50;;
16922;SDS011;8578;50.938;13.556;2023-05-24T09:30:24;12.00;;;3.03;;
16922;SDS011;8578;50.938;13.556;2023-05-24T09:32:56;11.23;;;3.17;;
16922;SDS011;8578;50.938;13.556;2023-05-24T09:35:24;9.13;;;3.00;;
16922;SDS011;8578;50.938;13.556;2023-05-24T09:37:53;15.07;;;3.40;;
16922;SDS011;8578;50.938;13.556;2023-05-24T09:40:20;8.40;;;3.10;;
16922;SDS011;8578;50.938;13.556;2023-05-24T09:42:52;10.93;;;3.23;;
16922;SDS011;8578;50.938;13.556;2023-05-24T09:45:28;13.07;;;3.73;;
16922;SDS011;8578;50.938;13.556;2023-05-24T09:47:57;12.40;;;3.30;;
16922;SDS011;8578;50.938;13.556;2023-05-24T09:50:25;10.67;;;3.50;;
16922;SDS011;8578;50.938;13.556;2023-05-24T09:52:53;9.67;;;3.10;;
16922;SDS011;8578;50.938;13.556;2023-05-24T09:55:21;10.73;;;3.20;;
16922;SDS011;8578;50.938;13.556;2023-05-24T09:57:51;10.37;;;3.17;;
16922;SDS011;8578;50.938;13.556;2023-05-24T10:00:27;11.67;;;3.00;;
16922;SDS011;8578;50.938;13.556;2023-05-24T10:02:59;14.40;;;3.37;;
16922;SDS011;8578;50.938;13.556;2023-05-24T10:05:27;12.10;;;3.10;;
16922;SDS011;8578;50.938;13.556;2023-05-24T10:07:56;11.33;;;3.20;;
16922;SDS011;8578;50.938;13.556;2023-05-24T10:10:25;16.07;;;3.47;;
16922;SDS011;8578;50.938;13.556;2023-05-24T10:12:56;11.97;;;3.30;;
16922;SDS011;8578;50.938;13.556;2023-05-24T10:15:24;19.30;;;3.70;;
16922;SDS011;8578;50.938;13.556;2023-05-24T10:17:53;12.07;;;2.87;;
16922;SDS011;8578;50.938;13.556;2023-05-24T10:20:21;12.60;;;3.03;;
16922;SDS011;8578;50.938;13.556;2023-05-24T10:22:51;9.43;;;2.80;;
16922;SDS011;8578;50.938;13.556;2023-05-24T10:25:20;9.80;;;2.97;;
16922;SDS011;8578;50.938;13.556;2023-05-24T10:27:48;12.07;;;2.77;;
16922;SDS011;8578;50.938;13.556;2023-05-24T10:30:19;11.10;;;3.13;;
16922;SDS011;8578;50.938;13.556;2023-05-24T10:32:51;15.50;;;2.70;;
16922;SDS011;8578;50.938;13.556;2023-05-24T10:35:19;17.07;;;3.37;;
16922;SDS011;8578;50.938;13.556;2023-05-24T10:37:48;7.43;;;3.50;;
16922;SDS011;8578;50.938;13.556;2023-05-24T10:40:16;13.13;;;3.53;;
16922;SDS011;8578;50.938;13.556;2023-05-24T10:42:45;13.87;;;3.33;;
16922;SDS011;8578;50.938;13.556;2023-05-24T10:45:30;11.17;;;3.00;;
16922;SDS011;8578;50.938;13.556;2023-05-24T10:48:07;8.40;;;2.90;;
16922;SDS011;8578;50.938;13.556;2023-05-24T10:50:35;11.43;;;4.17;;
16922;SDS011;8578;50.938;13.556;2023-05-24T10:53:12;14.30;;;3.73;;
16922;SDS011;8578;50.938;13.556;2023-05-24T10:55:52;12.97;;;2.90;;
16922;SDS011;8578;50.938;13.556;2023-05-24T10:58:21;9.70;;;2.80;;
16922;SDS011;8578;50.938;13.556;2023-05-24T11:00:51;9.57;;;2.83;;
16922;SDS011;8578;50.938;13.556;2023-05-24T11:03:19;7.53;;;2.67;;
16922;SDS011;8578;50.938;13.556;2023-05-24T11:05:50;12.80;;;3.17;;
16922;SDS011;8578;50.938;13.556;2023-05-24T11:08:23;14.20;;;3.10;;
16922;SDS011;8578;50.938;13.556;2023-05-24T11:11:00;9.30;;;2.70;;
16922;SDS011;8578;50.938;13.556;2023-05-24T11:13:48;8.80;;;2.90;;
16922;SDS011;8578;50.938;13.556;2023-05-24T11:18:59;9.63;;;2.80;;
16922;SDS011;8578;50.938;13.556;2023-05-24T11:21:31;10.30;;;3.20;;
16922;SDS011;8578;50.938;13.556;2023-05-24T11:23:58;12.43;;;3.17;;
16922;SDS011;8578;50.938;13.556;2023-05-24T11:26:26;15.80;;;3.10;;
16922;SDS011;8578;50.938;13.556;2023-05-24T11:28:54;11.93;;;2.87;;
16922;SDS011;8578;50.938;13.556;2023-05-24T11:31:25;10.37;;;3.07;;
16922;SDS011;8578;50.938;13.556;2023-05-24T11:33:53;9.57;;;2.53;;
16922;SDS011;8578;50.938;13.556;2023-05-24T11:36:22;11.40;;;2.83;;
16922;SDS011;8578;50.938;13.556;2023-05-24T11:38:52;12.60;;;3.10;;
16922;SDS011;8578;50.938;13.556;2023-05-24T11:41:20;11.07;;;2.77;;
16922;SDS011;8578;50.938;13.556;2023-05-24T11:43:47;8.43;;;2.93;;
16922;SDS011;8578;50.938;13.556;2023-05-24T11:46:15;9.37;;;2.97;;
16922;SDS011;8578;50.938;13.556;2023-05-24T11:48:53;7.27;;;2.67;;
16922;SDS011;8578;50.938;13.556;2023-05-24T11:51:25;11.83;;;2.70;;
16922;SDS011;8578;50.938;13.556;2023-05-24T11:53:54;7.10;;;2.50;;
16922;SDS011;8578;50.938;13.556;2023-05-24T11:56:22;14.00;;;2.97;;
16922;SDS011;8578;50.938;13.556;2023-05-24T11:58:49;16.53;;;3.13;;
16922;SDS011;8578;50.938;13.556;2023-05-24T12:01:22;11.00;;;3.00;;
16922;SDS011;8578;50.938;13.556;2023-05-24T12:03:50;8.30;;;3.03;;
16922;SDS011;8578;50.938;13.556;2023-05-24T12:06:18;15.00;;;3.60;;
16922;SDS011;8578;50.938;13.556;2023-05-24T12:08:48;10.27;;;3.93;;
16922;SDS011;8578;50.938;13.556;2023-05-24T12:11:16;10.30;;;3.17;;
16922;SDS011;8578;50.938;13.556;2023-05-24T12:13:43;9.23;;;3.23;;
16922;SDS011;8578;50.938;13.556;2023-05-24T12:16:11;10.73;;;3.13;;
16922;SDS011;8578;50.938;13.556;2023-05-24T12:18:42;15.53;;;4.20;;
16922;SDS011;8578;50.938;13.556;2023-05-24T12:21:31;14.90;;;3.40;;
16922;SDS011;8578;50.938;13.556;2023-05-24T12:24:10;10.37;;;2.87;;
16922;SDS011;8578;50.938;13.556;2023-05-24T12:26:41;8.27;;;2.63;;
16922;SDS011;8578;50.938;13.556;2023-05-24T12:29:10;11.90;;;2.70;;
16922;SDS011;8578;50.938;13.556;2023-05-24T12:31:41;8.57;;;2.93;;
16922;SDS011;8578;50.938;13.556;2023-05-24T12:34:12;11.57;;;3.13;;
16922;SDS011;8578;50.938;13.556;2023-05-24T12:36:41;14.97;;;4.33;;
16922;SDS011;8578;50.938;13.556;2023-05-24T12:39:17;8.50;;;2.80;;
16922;SDS011;8578;50.938;13.556;2023-05-24T12:41:48;9.50;;;2.93;;
16922;SDS011;8578;50.938;13.556;2023-05-24T12:44:16;9.93;;;2.83;;
16922;SDS011;8578;50.938;13.556;2023-05-24T12:46:44;12.70;;;3.27;;
16922;SDS011;8578;50.938;13.556;2023-05-24T12:49:12;10.20;;;3.10;;
16922;SDS011;8578;50.938;13.556;2023-05-24T12:51:39;14.17;;;3.43;;
16922;SDS011;8578;50.938;13.556;2023-05-24T12:54:07;10.10;;;3.07;;
16922;SDS011;8578;50.938;13.556;2023-05-24T12:56:36;12.53;;;3.27;;
16922;SDS011;8578;50.938;13.556;2023-05-24T12:59:03;13.37;;;3.13;;
16922;SDS011;8578;50.938;13.556;2023-05-24T13:01:31;9.20;;;2.80;;
16922;SDS011;8578;50.938;13.556;2023-05-24T13:03:58;14.27;;;3.73;;
16922;SDS011;8578;50.938;13.556;2023-05-24T13:06:27;14.03;;;3.50;;
16922;SDS011;8578;50.938;13.556;2023-05-24T13:08:55;8.93;;;2.70;;
16922;SDS011;8578;50.938;13.556;2023-05-24T13:11:23;11.57;;;3.37;;
16922;SDS011;8578;50.938;13.556;2023-05-24T13:13:54;7.50;;;2.83;;
16922;SDS011;8578;50.938;13.556;2023-05-24T13:16:22;10.30;;;3.10;;
16922;SDS011;8578;50.938;13.556;2023-05-24T13:18:51;9.87;;;3.10;;
16922;SDS011;8578;50.938;13.556;2023-05-24T13:21:18;10.43;;;2.83;;
16922;SDS011;8578;50.938;13.556;2023-05-24T13:23:46;10.43;;;2.67;;
16922;SDS011;8578;50.938;13.556;2023-05-24T13:26:14;9.30;;;2.70;;
16922;SDS011;8578;50.938;13.556;2023-05-24T13:28:41;9.50;;;2.87;;
16922;SDS011;8578;50.938;13.556;2023-05-24T13:31:33;10.60;;;2.97;;
16922;SDS011;8578;50.938;13.556;2023-05-24T13:34:03;8.57;;;2.67;;
16922;SDS011;8578;50.938;13.556;2023-05-24T13:36:30;12.93;;;3.17;;
16922;SDS011;8578;50.938;13.556;2023-05-24T13:38:58;12.27;;;3.10;;
16922;SDS011;8578;50.938;13.556;2023-05-24T13:41:29;11.03;;;3.00;;
16922;SDS011;8578;50.938;13.556;2023-05-24T13:43:56;9.77;;;3.40;;
16922;SDS011;8578;50.938;13.556;2023-05-24T13:46:24;12.30;;;3.33;;
16922;SDS011;8578;50.938;13.556;2023-05-24T13:48:53;9.83;;;2.93;;
16922;SDS011;8578;50.938;13.556;2023-05-24T13:51:21;9.83;;;3.10;;
16922;SDS011;8578;50.938;13.556;2023-05-24T13:53:49;13.73;;;3.27;;
16922;SDS011;8578;50.938;13.556;2023-05-24T13:56:17;15.27;;;3.37;;
16922;SDS011;8578;50.938;13.556;2023-05-24T13:58:45;13.80;;;3.43;;
16922;SDS011;8578;50.938;13.556;2023-05-24T14:01:12;7.90;;;2.87;;
16922;SDS011;8578;50.938;13.556;2023-05-24T14:03:40;11.63;;;3.00;;
16922;SDS011;8578;50.938;13.556;2023-05-24T14:06:10;11.83;;;3.07;;
16922;SDS011;8578;50.938;13.556;2023-05-24T14:08:37;8.93;;;2.90;;
16922;SDS011;8578;50.938;13.556;2023-05-24T14:11:05;12.20;;;3.03;;
16922;SDS011;8578;50.938;13.556;2023-05-24T14:13:32;9.07;;;3.10;;
16922;SDS011;8578;50.938;13.556;2023-05-24T14:16:03;9.23;;;3.10;;
16922;SDS011;8578;50.938;13.556;2023-05-24T14:18:32;10.17;;;2.60;;
16922;SDS011;8578;50.938;13.556;2023-05-24T14:21:00;11.10;;;3.43;;
16922;SDS011;8578;50.938;13.556;2023-05-24T14:23:29;8.47;;;3.43;;
16922;SDS011;8578;50.938;13.556;2023-05-24T14:25:57;17.53;;;4.00;;
16922;SDS011;8578;50.938;13.556;2023-05-24T14:28:24;9.40;;;3.40;;
16922;SDS011;8578;50.938;13.556;2023-05-24T14:30:52;14.13;;;3.40;;
16922;SDS011;8578;50.938;13.556;2023-05-24T14:33:19;11.00;;;4.13;;
16922;SDS011;8578;50.938;13.556;2023-05-24T14:35:48;13.20;;;3.87;;
16922;SDS011;8578;50.938;13.556;2023-05-24T14:38:17;13.30;;;3.53;;
16922;SDS011;8578;50.938;13.556;2023-05-24T14:40:46;8.27;;;3.17;;
16922;SDS011;8578;50.938;13.556;2023-05-24T14:43:14;14.23;;;3.60;;
16922;SDS011;8578;50.938;13.556;2023-05-24T14:45:42;7.43;;;3.00;;
16922;SDS011;8578;50.938;13.556;2023-05-24T14:48:10;10.20;;;3.57;;
16922;SDS011;8578;50.938;13.556;2023-05-24T14:50:38;11.13;;;3.57;;
16922;SDS011;8578;50.938;13.556;2023-05-24T14:53:07;11.60;;;3.93;;